createdAt,value
2018-07-10T00:00:20.319Z,68.21
2018-07-10T00:01:20.320Z,68.79
2018-07-10T00:02:20.304Z,68.59
2018-07-10T00:03:20.324Z,68.27
2018-07-10T00:04:20.339Z,68.4
2018-07-10T00:05:36.424Z,68.56
2018-07-10T00:06:36.395Z,68.08
2018-07-10T00:07:36.417Z,68.17
2018-07-10T00:08:36.384Z,68.17
2018-07-10T00:09:36.389Z,68.08
2018-07-10T00:10:36.408Z,68.27
2018-07-10T00:11:36.391Z,68.17
2018-07-10T00:12:36.377Z,68.11
2018-07-10T00:13:36.476Z,68.27
2018-07-10T00:14:36.415Z,68.4
2018-07-10T00:15:36.428Z,68.27
2018-07-10T00:16:36.392Z,68.17
2018-07-10T00:17:36.401Z,68.49
2018-07-10T00:18:36.454Z,68.17
2018-07-10T00:19:36.388Z,68.66
2018-07-10T00:20:36.399Z,68.3
2018-07-10T00:21:36.400Z,68.3
2018-07-10T00:22:36.407Z,68.49
2018-07-10T00:23:36.443Z,68.49
2018-07-10T00:24:36.456Z,68.49
2018-07-10T00:25:36.402Z,68.49
2018-07-10T00:26:36.409Z,68.21
2018-07-10T00:27:36.519Z,68.49
2018-07-10T00:28:36.422Z,68.4
2018-07-10T00:29:36.505Z,68.21
2018-07-10T00:30:36.544Z,68.4
2018-07-10T00:31:36.418Z,68.4
2018-07-10T00:32:36.425Z,68.49
2018-07-10T00:33:36.442Z,68.69
2018-07-10T00:34:36.441Z,68.49
2018-07-10T00:35:36.447Z,68.21
2018-07-10T00:36:36.426Z,68.01
2018-07-10T00:37:36.434Z,68.11
2018-07-10T00:38:36.437Z,68.21
2018-07-10T00:39:36.472Z,68.21
2018-07-10T00:40:36.430Z,68.01
2018-07-10T00:41:36.464Z,68.21
2018-07-10T00:42:36.437Z,68.21
2018-07-10T00:43:36.495Z,68.3
2018-07-10T00:44:36.473Z,68.59
2018-07-10T00:45:36.465Z,68.3
2018-07-10T00:46:36.474Z,68.4
2018-07-10T00:47:36.444Z,68.3
2018-07-10T00:48:36.453Z,68.3
2018-07-10T00:49:36.489Z,68.3
2018-07-10T00:50:36.438Z,68.49
2018-07-10T00:51:36.445Z,68.4
2018-07-10T00:52:36.479Z,68.49
2018-07-10T00:53:36.498Z,68.59
2018-07-10T00:54:36.493Z,68.59
2018-07-10T00:55:36.500Z,68.79
2018-07-10T00:56:36.480Z,68.79
2018-07-10T00:57:36.492Z,69.08
2018-07-10T00:58:37.052Z,69.08
2018-07-10T00:59:36.526Z,69.08
2018-07-10T01:00:36.533Z,68.4
2018-07-10T01:01:36.512Z,68.21
2018-07-10T01:02:36.464Z,69.08
2018-07-10T01:03:36.472Z,69.08
2018-07-10T01:04:36.554Z,68.79
2018-07-10T01:05:36.508Z,68.88
2018-07-10T01:06:37.054Z,68.79
2018-07-10T01:07:36.498Z,68.59
2018-07-10T01:08:36.504Z,69.17
2018-07-10T01:09:36.488Z,68.98
2018-07-10T01:10:36.521Z,68.88
2018-07-10T01:11:36.527Z,68.95
2018-07-10T01:12:36.511Z,68.88
2018-07-10T01:13:36.517Z,68.59
2018-07-10T01:15:55.708Z,68.79
2018-07-10T01:16:55.636Z,68.88
2018-07-10T01:17:55.620Z,68.59
2018-07-10T01:18:55.691Z,68.75
2018-07-10T01:19:55.660Z,68.79
2018-07-10T01:20:55.637Z,68.95
2018-07-10T01:21:55.660Z,68.75
2018-07-10T01:22:55.643Z,68.88
2018-07-10T01:23:55.664Z,68.75
2018-07-10T01:24:55.657Z,69.24
2018-07-10T01:25:55.650Z,69.27
2018-07-10T01:26:55.642Z,69.14
2018-07-10T01:27:55.654Z,69.14
2018-07-10T01:28:55.672Z,69.14
2018-07-10T01:29:55.662Z,69.14
2018-07-10T01:30:55.695Z,69.14
2018-07-10T01:31:55.679Z,69.04
2018-07-10T01:32:55.664Z,69.04
2018-07-10T01:33:55.671Z,69.04
2018-07-10T01:34:55.670Z,68.85
2018-07-10T01:35:55.706Z,68.95
2018-07-10T01:36:55.692Z,69.14
2018-07-10T01:37:55.699Z,69.14
2018-07-10T01:38:55.710Z,69.14
2018-07-10T01:39:55.707Z,68.95
2018-07-10T01:40:55.680Z,69.14
2018-07-10T01:41:55.668Z,69.14
2018-07-10T01:42:55.672Z,69.04
2018-07-10T01:43:55.728Z,68.85
2018-07-10T01:44:55.706Z,69.14
2018-07-10T01:45:55.701Z,69.24
2018-07-10T01:46:55.710Z,69.14
2018-07-10T01:47:55.705Z,69.24
2018-07-10T01:48:55.713Z,69.14
2018-07-10T01:49:55.703Z,68.95
2018-07-10T01:50:55.721Z,69.04
2018-07-10T01:51:55.712Z,69.14
2018-07-10T01:52:55.723Z,68.56
2018-07-10T01:53:55.746Z,69.04
2018-07-10T01:54:55.711Z,68.75
2018-07-10T01:55:55.739Z,69.14
2018-07-10T01:56:55.708Z,69.33
2018-07-10T02:01:24.082Z,69.24
2018-07-10T02:02:24.114Z,69.14
2018-07-10T02:03:24.097Z,69.14
2018-07-10T02:04:24.095Z,68.95
2018-07-10T02:05:24.082Z,69.04
2018-07-10T02:06:24.092Z,69.14
2018-07-10T02:07:24.095Z,69.04
2018-07-10T02:08:24.069Z,69.24
2018-07-10T02:09:24.109Z,69.14
2018-07-10T02:10:24.068Z,69.14
2018-07-10T02:11:24.068Z,69.14
2018-07-10T02:12:24.096Z,69.33
2018-07-10T02:13:24.102Z,69.24
2018-07-10T02:14:24.128Z,69.24
2018-07-10T02:15:24.104Z,68.95
2018-07-10T02:16:24.110Z,68.95
2018-07-10T02:17:24.115Z,69.33
2018-07-10T02:18:24.116Z,69.43
2018-07-10T02:19:24.120Z,69.14
2018-07-10T02:20:24.134Z,69.04
2018-07-10T02:21:24.166Z,69.72
2018-07-10T02:22:24.109Z,68.95
2018-07-10T02:23:24.177Z,68.95
2018-07-10T02:24:24.131Z,69.14
2018-07-10T02:25:24.135Z,69.14
2018-07-10T02:26:24.164Z,69.43
2018-07-10T02:27:24.123Z,69.43
2018-07-10T02:28:24.120Z,69.43
2018-07-10T02:29:24.158Z,69.04
2018-07-10T02:30:24.134Z,69.72
2018-07-10T02:31:24.116Z,69.62
2018-07-10T02:32:24.109Z,69.43
2018-07-10T02:33:24.158Z,69.43
2018-07-10T02:34:24.138Z,69.62
2018-07-10T02:35:24.143Z,68.95
2018-07-10T02:36:24.149Z,69.53
2018-07-10T02:37:24.210Z,69.04
2018-07-10T02:38:24.137Z,69.62
2018-07-10T02:39:24.171Z,69.24
2018-07-10T02:40:24.180Z,69.14
2018-07-10T02:41:24.158Z,69.62
2018-07-10T02:46:40.700Z,69.33
2018-07-10T02:46:52.201Z,69.72
2018-07-10T02:47:52.218Z,69.72
2018-07-10T02:48:52.164Z,69.62
2018-07-10T02:49:52.213Z,69.14
2018-07-10T02:50:52.211Z,69.14
2018-07-10T02:51:52.191Z,69.24
2018-07-10T02:58:30.044Z,69.43
2018-07-10T02:59:30.017Z,69.62
2018-07-10T03:00:30.019Z,69.14
2018-07-10T03:01:30.001Z,69.04
2018-07-10T03:02:30.030Z,69.53
2018-07-10T03:03:30.024Z,69.14
2018-07-10T03:04:30.029Z,69.43
2018-07-10T03:05:30.034Z,69.14
2018-07-10T03:06:30.011Z,69.43
2018-07-10T03:07:29.991Z,69.62
2018-07-10T03:08:30.019Z,69.14
2018-07-10T03:09:30.058Z,69.53
2018-07-10T03:10:30.012Z,69.14
2018-07-10T03:11:30.016Z,69.33
2018-07-10T03:12:30.035Z,69.04
2018-07-10T03:13:30.007Z,69.04
2018-07-10T03:14:30.017Z,69.62
2018-07-10T03:15:30.026Z,69.43
2018-07-10T03:16:29.994Z,69.62
2018-07-10T03:17:30.051Z,69.43
2018-07-10T03:18:30.037Z,69.43
2018-07-10T03:19:30.043Z,69.14
2018-07-10T03:21:48.974Z,69.33
2018-07-10T03:22:48.929Z,69.33
2018-07-10T03:23:48.919Z,69.04
2018-07-10T03:24:48.960Z,69.62
2018-07-10T03:25:48.989Z,69.53
2018-07-10T03:26:48.937Z,69.53
2018-07-10T03:27:48.931Z,69.72
2018-07-10T03:28:48.964Z,69.62
2018-07-10T03:29:48.956Z,69.53
2018-07-10T03:30:48.929Z,69.53
2018-07-10T03:31:48.941Z,69.43
2018-07-10T03:32:49.003Z,69.43
2018-07-10T03:33:48.941Z,69.14
2018-07-10T03:34:48.928Z,69.14
2018-07-10T03:35:48.983Z,69.14
2018-07-10T03:36:48.974Z,69.14
2018-07-10T03:37:48.967Z,69.24
2018-07-10T03:38:48.928Z,69.24
2018-07-10T03:39:48.936Z,69.33
2018-07-10T03:40:48.973Z,69.53
2018-07-10T03:42:05.098Z,69.43
2018-07-10T03:43:05.087Z,69.14
2018-07-10T03:48:22.433Z,69.53
2018-07-10T03:48:34.490Z,69.62
2018-07-10T03:49:34.547Z,69.04
2018-07-10T03:50:34.497Z,69.14
2018-07-10T03:51:34.517Z,69.24
2018-07-10T03:52:34.530Z,69.33
2018-07-10T03:53:34.522Z,69.14
2018-07-10T03:54:34.531Z,68.95
2018-07-10T03:55:34.483Z,69.53
2018-07-10T03:56:34.500Z,69.53
2018-07-10T03:57:34.523Z,69.43
2018-07-10T03:58:34.544Z,69.43
2018-07-10T03:59:34.526Z,69.43
2018-07-10T04:00:34.589Z,69.62
2018-07-10T04:01:34.527Z,69.14
2018-07-10T04:02:34.549Z,69.14
2018-07-10T04:03:34.526Z,69.24
2018-07-10T04:04:34.554Z,69.14
2018-07-10T04:09:05.066Z,69.62
2018-07-10T04:10:04.940Z,69.62
2018-07-10T04:11:04.914Z,69.62
2018-07-10T04:12:04.922Z,69.43
2018-07-10T04:13:04.958Z,69.43
2018-07-10T04:14:04.923Z,69.33
2018-07-10T04:15:04.960Z,69.62
2018-07-10T04:16:04.912Z,69.62
2018-07-10T04:17:04.976Z,69.43
2018-07-10T04:18:04.964Z,69.62
2018-07-10T04:19:04.918Z,69.43
2018-07-10T04:20:05.189Z,69.62
2018-07-10T04:21:05.106Z,69.43
2018-07-10T04:22:05.164Z,69.43
2018-07-10T04:23:05.206Z,69.33
2018-07-10T04:24:05.199Z,69.62
2018-07-10T04:25:05.698Z,69.43
2018-07-10T04:26:05.298Z,69.53
2018-07-10T04:27:05.127Z,69.53
2018-07-10T04:28:05.060Z,69.92
2018-07-10T04:29:05.364Z,69.72
2018-07-10T04:30:05.275Z,70.01
2018-07-10T04:31:05.148Z,69.72
2018-07-10T04:32:05.014Z,69.72
2018-07-10T04:33:04.982Z,69.72
2018-07-10T04:34:04.960Z,69.62
2018-07-10T04:35:04.960Z,69.92
2018-07-10T04:36:04.991Z,69.92
2018-07-10T04:37:04.921Z,69.82
2018-07-10T04:38:04.987Z,69.92
2018-07-10T04:39:04.991Z,69.72
2018-07-10T04:40:05.042Z,69.82
2018-07-10T04:41:05.067Z,69.33
2018-07-10T04:42:04.988Z,69.43
2018-07-10T04:43:05.833Z,70.01
2018-07-10T04:44:05.024Z,69.53
2018-07-10T04:45:04.974Z,70.01
2018-07-10T04:46:04.990Z,69.92
2018-07-10T04:47:04.991Z,69.72
2018-07-10T04:48:05.026Z,69.72
2018-07-10T04:49:05.152Z,69.72
2018-07-10T04:50:05.076Z,69.62
2018-07-10T04:51:04.971Z,69.43
2018-07-10T04:52:05.092Z,69.92
2018-07-10T04:53:05.052Z,69.92
2018-07-10T04:54:05.017Z,69.43
2018-07-10T04:55:05.022Z,69.62
2018-07-10T04:57:25.101Z,69.43
2018-07-10T04:58:24.497Z,69.53
2018-07-10T04:59:25.392Z,69.43
2018-07-10T05:00:24.451Z,69.53
2018-07-10T05:01:24.454Z,69.53
2018-07-10T05:02:24.435Z,70.01
2018-07-10T05:03:24.441Z,69.92
2018-07-10T05:04:24.462Z,69.53
2018-07-10T05:05:24.462Z,69.43
2018-07-10T05:06:24.484Z,69.62
2018-07-10T05:07:24.497Z,69.72
2018-07-10T05:08:24.445Z,69.53
2018-07-10T05:09:24.459Z,69.92
2018-07-10T05:10:24.545Z,69.43
2018-07-10T05:11:24.476Z,69.62
2018-07-10T05:12:24.476Z,69.62
2018-07-10T05:13:24.507Z,69.92
2018-07-10T05:14:24.487Z,69.82
2018-07-10T05:15:24.477Z,69.82
2018-07-10T05:16:24.485Z,69.82
2018-07-10T05:17:24.437Z,69.82
2018-07-10T05:18:24.474Z,70.01
2018-07-10T05:22:52.762Z,69.72
2018-07-10T05:23:52.438Z,69.62
2018-07-10T05:24:52.457Z,69.82
2018-07-10T05:25:52.424Z,69.82
2018-07-10T05:28:11.347Z,69.53
2018-07-10T05:29:11.500Z,69.82
2018-07-10T05:30:11.316Z,69.62
2018-07-10T05:31:11.373Z,69.92
2018-07-10T05:32:11.345Z,69.92
2018-07-10T05:33:11.386Z,69.82
2018-07-10T05:34:11.360Z,69.62
2018-07-10T05:35:11.363Z,69.92
2018-07-10T05:36:11.381Z,69.72
2018-07-10T05:37:11.431Z,69.62
2018-07-10T05:38:11.440Z,70.01
2018-07-10T05:39:11.363Z,69.92
2018-07-10T05:40:11.335Z,69.53
2018-07-10T05:41:11.378Z,69.82
2018-07-10T05:42:11.438Z,69.82
2018-07-10T05:43:11.366Z,69.46
2018-07-10T05:44:11.332Z,69.46
2018-07-10T05:45:11.401Z,69.46
2018-07-10T05:46:11.358Z,69.66
2018-07-10T05:47:11.364Z,69.75
2018-07-10T05:48:11.391Z,69.46
2018-07-10T05:49:11.368Z,69.46
2018-07-10T05:50:11.408Z,69.37
2018-07-10T05:51:11.368Z,69.56
2018-07-10T05:52:11.402Z,69.46
2018-07-10T05:53:11.371Z,69.75
2018-07-10T05:54:11.417Z,69.75
2018-07-10T05:55:11.417Z,69.66
2018-07-10T05:56:11.389Z,69.46
2018-07-10T05:57:11.384Z,69.08
2018-07-10T05:58:11.421Z,69.08
2018-07-10T05:59:11.469Z,69.46
2018-07-10T06:00:11.380Z,69.27
2018-07-10T06:01:11.438Z,69.37
2018-07-10T06:03:31.622Z,69.08
2018-07-10T06:04:31.612Z,69.08
2018-07-10T06:05:31.602Z,69.17
2018-07-10T06:06:31.584Z,69.17
2018-07-10T06:07:31.606Z,69.46
2018-07-10T06:08:31.602Z,69.17
2018-07-10T06:09:31.592Z,69.17
2018-07-10T06:10:31.793Z,69.08
2018-07-10T06:11:31.592Z,69.46
2018-07-10T06:12:31.608Z,69.46
2018-07-10T06:13:31.707Z,69.27
2018-07-10T06:14:31.598Z,69.37
2018-07-10T06:15:31.699Z,69.27
2018-07-10T06:16:31.630Z,69.37
2018-07-10T06:17:31.627Z,69.27
2018-07-10T06:18:31.618Z,69.37
2018-07-10T06:19:31.622Z,69.46
2018-07-10T06:20:31.692Z,69.37
2018-07-10T06:21:31.613Z,69.46
2018-07-10T06:22:31.678Z,69.46
2018-07-10T06:23:31.676Z,69.08
2018-07-10T06:24:31.616Z,68.98
2018-07-10T06:25:31.689Z,69.17
2018-07-10T06:26:31.617Z,68.98
2018-07-10T06:27:31.633Z,69.37
2018-07-10T06:28:31.614Z,69.08
2018-07-10T06:29:31.663Z,69.17
2018-07-10T06:30:31.655Z,69.46
2018-07-10T06:31:31.635Z,69.46
2018-07-10T06:32:31.684Z,69.46
2018-07-10T06:33:31.612Z,69.17
2018-07-10T06:38:01.052Z,69.37
2018-07-10T06:39:01.072Z,69.27
2018-07-10T06:40:01.046Z,69.17
2018-07-10T06:41:01.077Z,69.46
2018-07-10T06:42:01.086Z,69.17
2018-07-10T06:43:01.094Z,69.37
2018-07-10T06:44:01.094Z,68.98
2018-07-10T06:45:01.075Z,69.27
2018-07-10T06:46:01.039Z,69.46
2018-07-10T06:47:01.080Z,69.46
2018-07-10T06:48:01.060Z,68.98
2018-07-10T06:49:01.046Z,69.46
2018-07-10T06:50:01.068Z,69.46
2018-07-10T06:51:01.906Z,69.08
2018-07-10T06:52:01.062Z,69.27
2018-07-10T06:53:17.760Z,69.27
2018-07-10T06:54:17.394Z,69.27
2018-07-10T06:55:17.393Z,69.27
2018-07-10T06:56:17.377Z,69.17
2018-07-10T06:57:17.362Z,69.27
2018-07-10T06:58:17.367Z,69.37
2018-07-10T06:59:17.389Z,69.27
2018-07-10T07:00:17.400Z,69.27
2018-07-10T07:01:17.377Z,69.37
2018-07-10T07:02:17.371Z,69.37
2018-07-10T07:03:17.399Z,69.27
2018-07-10T07:04:17.378Z,69.27
2018-07-10T07:05:17.424Z,69.27
2018-07-10T07:06:17.399Z,69.17
2018-07-10T07:07:17.364Z,69.27
2018-07-10T07:08:17.362Z,69.27
2018-07-10T07:09:17.376Z,69.27
2018-07-10T07:10:17.420Z,69.46
2018-07-10T07:11:17.392Z,69.17
2018-07-10T07:12:17.399Z,69.27
2018-07-10T07:13:17.394Z,69.46
2018-07-10T07:14:17.413Z,69.46
2018-07-10T07:15:17.466Z,69.08
2018-07-10T07:16:17.412Z,69.17
2018-07-10T07:17:17.403Z,69.27
2018-07-10T07:18:17.757Z,69.17
2018-07-10T07:19:17.402Z,69.17
2018-07-10T07:20:17.408Z,69.17
2018-07-10T07:21:17.408Z,69.08
2018-07-10T07:22:17.409Z,69.17
2018-07-10T07:23:17.450Z,69.37
2018-07-10T07:24:17.404Z,69.46
2018-07-10T07:25:17.408Z,69.17
2018-07-10T07:26:17.437Z,69.27
2018-07-10T07:27:17.395Z,69.66
2018-07-10T07:28:17.424Z,69.66
2018-07-10T07:29:17.457Z,69.56
2018-07-10T07:30:17.441Z,69.46
2018-07-10T07:31:17.443Z,69.66
2018-07-10T07:32:17.449Z,69.37
2018-07-10T07:33:17.434Z,69.37
2018-07-10T07:34:17.479Z,69.46
2018-07-10T07:35:17.427Z,69.56
2018-07-10T07:36:17.425Z,69.75
2018-07-10T07:37:17.466Z,69.56
2018-07-10T07:38:17.420Z,69.17
2018-07-10T07:39:17.424Z,69.46
2018-07-10T07:40:17.441Z,69.46
2018-07-10T07:41:17.463Z,69.66
2018-07-10T07:42:17.453Z,69.66
2018-07-10T07:43:17.468Z,69.37
2018-07-10T07:44:17.559Z,69.37
2018-07-10T07:45:17.448Z,69.46
2018-07-10T07:46:17.467Z,69.46
2018-07-10T07:47:17.481Z,69.46
2018-07-10T07:48:33.662Z,69.75
2018-07-10T07:49:33.642Z,69.66
2018-07-10T07:50:33.653Z,69.75
2018-07-10T07:51:33.709Z,69.66
2018-07-10T07:52:33.771Z,69.75
2018-07-10T07:53:33.683Z,69.66
2018-07-10T07:54:33.985Z,69.75
2018-07-10T07:55:33.630Z,69.75
2018-07-10T07:56:33.685Z,69.66
2018-07-10T07:57:33.672Z,69.46
2018-07-10T07:58:33.768Z,69.66
2018-07-10T07:59:33.685Z,69.66
2018-07-10T08:00:33.806Z,69.66
2018-07-10T08:01:33.720Z,69.66
2018-07-10T08:03:52.904Z,69.66
2018-07-10T08:04:52.866Z,69.56
2018-07-10T08:05:52.920Z,69.66
2018-07-10T08:06:52.927Z,69.37
2018-07-10T08:07:52.885Z,69.56
2018-07-10T08:08:52.917Z,69.56
2018-07-10T08:09:52.882Z,69.17
2018-07-10T08:10:52.912Z,69.66
2018-07-10T08:11:53.586Z,69.66
2018-07-10T08:12:52.941Z,69.66
2018-07-10T08:13:52.890Z,69.66
2018-07-10T08:14:52.874Z,69.46
2018-07-10T08:15:52.879Z,69.08
2018-07-10T08:16:52.937Z,68.98
2018-07-10T08:17:52.902Z,69.66
2018-07-10T08:18:52.905Z,69.85
2018-07-10T08:19:52.885Z,69.66
2018-07-10T08:20:52.977Z,69.46
2018-07-10T08:21:52.926Z,69.46
2018-07-10T08:22:52.906Z,69.66
2018-07-10T08:23:52.938Z,69.66
2018-07-10T08:24:52.913Z,69.56
2018-07-10T08:25:52.897Z,69.56
2018-07-10T08:26:52.911Z,69.56
2018-07-10T08:27:52.957Z,69.66
2018-07-10T08:28:52.918Z,69.56
2018-07-10T08:29:52.944Z,69.46
2018-07-10T08:30:52.961Z,69.56
2018-07-10T08:31:52.944Z,69.56
2018-07-10T08:32:52.922Z,69.66
2018-07-10T08:33:53.095Z,69.46
2018-07-10T08:34:52.931Z,69.56
2018-07-10T08:35:52.939Z,69.66
2018-07-10T08:36:52.916Z,69.37
2018-07-10T08:37:52.980Z,69.66
2018-07-10T08:38:52.937Z,69.37
2018-07-10T08:39:52.960Z,69.37
2018-07-10T08:40:52.972Z,69.46
2018-07-10T08:41:52.934Z,69.56
2018-07-10T08:42:52.937Z,69.46
2018-07-10T08:43:52.946Z,69.46
2018-07-10T08:44:52.969Z,69.37
2018-07-10T08:45:53.002Z,69.46
2018-07-10T08:46:52.927Z,69.56
2018-07-10T08:47:52.935Z,69.56
2018-07-10T08:48:52.999Z,69.56
2018-07-10T08:49:53.076Z,69.56
2018-07-10T08:50:52.983Z,69.46
2018-07-10T08:51:52.974Z,69.56
2018-07-10T08:52:52.998Z,69.56
2018-07-10T08:53:53.374Z,69.56
2018-07-10T08:54:53.044Z,69.37
2018-07-10T08:55:52.971Z,69.66
2018-07-10T08:56:52.996Z,69.66
2018-07-10T08:57:53.013Z,69.37
2018-07-10T08:58:53.007Z,69.37
2018-07-10T08:59:53.052Z,69.66
2018-07-10T09:00:52.970Z,69.75
2018-07-10T09:01:53.082Z,69.56
2018-07-10T09:02:52.962Z,69.75
2018-07-10T09:03:53.001Z,69.46
2018-07-10T09:04:53.006Z,69.27
2018-07-10T09:05:53.036Z,69.46
2018-07-10T09:06:53.015Z,69.46
2018-07-10T09:07:52.998Z,69.56
2018-07-10T09:08:52.999Z,69.66
2018-07-10T09:09:53.001Z,69.66
2018-07-10T09:10:53.016Z,69.46
2018-07-10T09:11:52.989Z,69.37
2018-07-10T09:12:53.001Z,69.46
2018-07-10T09:13:53.032Z,69.37
2018-07-10T09:14:53.034Z,69.66
2018-07-10T09:15:52.970Z,69.46
2018-07-10T09:16:52.997Z,69.37
2018-07-10T09:17:53.029Z,69.37
2018-07-10T09:18:52.987Z,69.46
2018-07-10T09:19:53.012Z,69.56
2018-07-10T09:20:52.981Z,69.56
2018-07-10T09:21:53.003Z,69.75
2018-07-10T09:22:53.015Z,69.75
2018-07-10T09:23:53.025Z,69.75
2018-07-10T09:24:53.082Z,69.37
2018-07-10T09:25:53.015Z,69.37
2018-07-10T09:26:52.988Z,69.37
2018-07-10T09:27:53.126Z,69.46
2018-07-10T09:28:52.980Z,69.46
2018-07-10T09:29:53.011Z,69.95
2018-07-10T09:30:53.034Z,69.95
2018-07-10T09:31:53.044Z,69.95
2018-07-10T09:32:53.029Z,69.85
2018-07-10T09:33:53.067Z,69.85
2018-07-10T09:34:53.022Z,70.14
2018-07-10T09:35:53.023Z,69.95
2018-07-10T09:36:53.026Z,70.04
2018-07-10T09:37:53.005Z,70.04
2018-07-10T09:38:53.023Z,70.04
2018-07-10T09:39:53.078Z,70.04
2018-07-10T09:40:53.007Z,70.04
2018-07-10T09:41:53.013Z,70.04
2018-07-10T09:42:53.067Z,70.04
2018-07-10T09:43:53.093Z,69.85
2018-07-10T09:44:54.538Z,69.75
2018-07-10T09:45:53.062Z,69.95
2018-07-10T09:46:53.095Z,69.85
2018-07-10T09:47:53.018Z,69.95
2018-07-10T09:48:53.025Z,69.95
2018-07-10T09:49:53.038Z,69.75
2018-07-10T09:50:53.038Z,69.95
2018-07-10T09:51:53.038Z,70.14
2018-07-10T09:52:53.052Z,69.75
2018-07-10T09:53:53.060Z,69.95
2018-07-10T09:54:53.146Z,69.75
2018-07-10T09:55:53.101Z,70.04
2018-07-10T09:56:53.077Z,69.95
2018-07-10T09:57:53.066Z,69.95
2018-07-10T09:58:53.085Z,69.95
2018-07-10T09:59:53.058Z,70.04
2018-07-10T10:00:53.052Z,69.95
2018-07-10T10:01:53.112Z,69.95
2018-07-10T10:02:53.037Z,69.95
2018-07-10T10:03:53.075Z,70.04
2018-07-10T10:04:53.126Z,69.95
2018-07-10T10:05:53.087Z,69.66
2018-07-10T10:06:53.050Z,69.95
2018-07-10T10:07:53.071Z,70.04
2018-07-10T10:08:53.107Z,69.95
2018-07-10T10:09:53.103Z,70.04
2018-07-10T10:10:53.094Z,69.66
2018-07-10T10:11:53.161Z,69.95
2018-07-10T10:12:53.114Z,69.66
2018-07-10T10:13:53.086Z,69.66
2018-07-10T10:14:53.117Z,69.56
2018-07-10T10:15:53.127Z,70.04
2018-07-10T10:16:53.102Z,70.04
2018-07-10T10:17:53.115Z,70.14
2018-07-10T10:20:12.511Z,69.75
2018-07-10T10:21:12.387Z,69.95
2018-07-10T10:22:12.387Z,69.95
2018-07-10T10:23:12.418Z,70.14
2018-07-10T10:24:12.404Z,69.75
2018-07-10T10:25:12.392Z,69.85
2018-07-10T10:26:12.419Z,69.85
2018-07-10T10:27:12.425Z,69.95
2018-07-10T10:28:12.401Z,69.75
2018-07-10T10:29:12.435Z,70.04
2018-07-10T10:30:12.447Z,69.95
2018-07-10T10:31:12.501Z,69.95
2018-07-10T10:32:12.400Z,69.85
2018-07-10T10:33:12.431Z,69.75
2018-07-10T10:34:12.440Z,69.66
2018-07-10T10:35:12.446Z,69.85
2018-07-10T10:36:12.454Z,69.85
2018-07-10T10:37:12.464Z,69.85
2018-07-10T10:38:12.424Z,69.66
2018-07-10T10:39:12.480Z,69.95
2018-07-10T10:40:12.451Z,69.85
2018-07-10T10:41:12.421Z,69.85
2018-07-10T10:42:12.464Z,69.66
2018-07-10T10:43:12.453Z,69.75
2018-07-10T10:44:12.427Z,69.85
2018-07-10T10:45:12.476Z,69.56
2018-07-10T10:46:12.478Z,69.85
2018-07-10T10:47:12.449Z,69.85
2018-07-10T10:48:12.463Z,69.85
2018-07-10T10:49:12.519Z,69.95
2018-07-10T10:50:12.466Z,69.85
2018-07-10T10:51:12.485Z,69.56
2018-07-10T10:52:12.483Z,70.04
2018-07-10T10:53:12.463Z,69.95
2018-07-10T10:54:12.451Z,69.56
2018-07-10T10:55:12.447Z,69.66
2018-07-10T10:56:12.458Z,69.85
2018-07-10T10:57:12.486Z,69.85
2018-07-10T10:58:12.466Z,69.85
2018-07-10T10:59:12.477Z,69.66
2018-07-10T11:00:12.455Z,69.85
2018-07-10T11:01:12.524Z,69.66
2018-07-10T11:02:12.526Z,70.04
2018-07-10T11:03:12.474Z,69.85
2018-07-10T11:04:12.490Z,69.75
2018-07-10T11:05:12.488Z,69.95
2018-07-10T11:06:12.477Z,69.66
2018-07-10T11:07:12.516Z,70.24
2018-07-10T11:08:12.489Z,69.66
2018-07-10T11:09:12.488Z,69.75
2018-07-10T11:10:12.495Z,69.75
2018-07-10T11:11:12.479Z,69.56
2018-07-10T11:12:12.493Z,69.56
2018-07-10T11:13:12.572Z,69.56
2018-07-10T11:14:12.536Z,69.56
2018-07-10T11:15:12.535Z,69.66
2018-07-10T11:16:12.510Z,70.14
2018-07-10T11:17:12.528Z,69.46
2018-07-10T11:18:12.500Z,69.56
2018-07-10T11:19:12.564Z,70.04
2018-07-10T11:20:12.542Z,70.04
2018-07-10T11:21:12.530Z,69.85
2018-07-10T11:22:12.553Z,69.56
2018-07-10T11:23:12.605Z,69.75
2018-07-10T11:24:12.519Z,70.04
2018-07-10T11:25:12.542Z,69.56
2018-07-10T11:26:12.529Z,69.46
2018-07-10T11:30:40.976Z,69.66
2018-07-10T11:35:09.660Z,70.24
2018-07-10T11:36:09.631Z,69.66
2018-07-10T11:37:09.632Z,69.95
2018-07-10T11:38:09.712Z,69.46
2018-07-10T11:39:09.748Z,69.95
2018-07-10T11:40:09.649Z,69.95
2018-07-10T11:41:09.710Z,69.95
2018-07-10T11:42:09.692Z,70.14
2018-07-10T11:43:09.718Z,69.85
2018-07-10T11:44:09.671Z,70.04
2018-07-10T11:45:09.638Z,69.56
2018-07-10T11:46:09.724Z,69.75
2018-07-10T11:47:09.647Z,70.14
2018-07-10T11:48:09.670Z,69.85
2018-07-10T11:49:09.651Z,69.85
2018-07-10T11:50:09.667Z,69.95
2018-07-10T11:51:09.678Z,70.14
2018-07-10T11:52:09.659Z,69.95
2018-07-10T11:53:09.713Z,70.14
2018-07-10T11:54:09.769Z,70.14
2018-07-10T11:55:09.698Z,69.95
2018-07-10T11:56:09.683Z,70.14
2018-07-10T11:57:09.680Z,69.75
2018-07-10T11:58:09.739Z,69.95
2018-07-10T11:59:09.750Z,70.14
2018-07-10T12:00:10.069Z,70.04
2018-07-10T12:01:09.680Z,69.85
2018-07-10T12:02:09.673Z,70.34
2018-07-10T12:03:09.667Z,69.85
2018-07-10T12:04:09.698Z,70.14
2018-07-10T12:05:09.679Z,70.14
2018-07-10T12:06:09.688Z,69.75
2018-07-10T12:07:10.026Z,70.24
2018-07-10T12:08:09.714Z,70.14
2018-07-10T12:09:09.680Z,69.85
2018-07-10T12:10:09.685Z,69.95
2018-07-10T12:11:09.671Z,70.14
2018-07-10T12:12:09.708Z,70.24
2018-07-10T12:13:09.711Z,70.24
2018-07-10T12:14:09.689Z,70.04
2018-07-10T12:15:09.699Z,70.24
2018-07-10T12:16:09.676Z,69.95
2018-07-10T12:17:09.687Z,70.14
2018-07-10T12:18:09.766Z,69.95
2018-07-10T12:19:09.694Z,69.66
2018-07-10T12:20:09.792Z,70.04
2018-07-10T12:21:09.737Z,69.85
2018-07-10T12:22:09.762Z,70.04
2018-07-10T12:23:09.725Z,70.14
2018-07-10T12:24:09.732Z,70.04
2018-07-10T12:25:09.737Z,70.14
2018-07-10T12:26:09.742Z,70.24
2018-07-10T12:27:09.728Z,70.14
2018-07-10T12:28:09.763Z,70.14
2018-07-10T12:29:09.733Z,70.14
2018-07-10T12:30:10.072Z,70.24
2018-07-10T12:31:09.750Z,70.14
2018-07-10T12:32:09.734Z,70.14
2018-07-10T12:33:09.737Z,70.14
2018-07-10T12:34:09.754Z,69.85
2018-07-10T12:35:09.742Z,69.95
2018-07-10T12:36:09.742Z,70.14
2018-07-10T12:37:09.742Z,70.14
2018-07-10T12:38:09.799Z,70.04
2018-07-10T12:39:09.752Z,70.14
2018-07-10T12:40:25.967Z,69.95
2018-07-10T12:41:25.945Z,70.04
2018-07-10T12:42:25.919Z,70.14
2018-07-10T12:43:25.953Z,70.14
2018-07-10T12:44:25.977Z,69.95
2018-07-10T12:45:25.929Z,69.95
2018-07-10T12:46:25.997Z,70.24
2018-07-10T12:47:25.982Z,69.85
2018-07-10T12:48:25.961Z,70.04
2018-07-10T12:49:26.009Z,70.14
2018-07-10T12:50:26.004Z,69.46
2018-07-10T12:51:25.978Z,70.14
2018-07-10T12:52:26.017Z,70.14
2018-07-10T12:53:25.942Z,70.04
2018-07-10T12:54:25.953Z,69.95
2018-07-10T12:55:25.988Z,70.14
2018-07-10T12:56:25.961Z,70.14
2018-07-10T12:57:25.949Z,70.14
2018-07-10T12:58:25.952Z,69.75
2018-07-10T12:59:25.932Z,69.95
2018-07-10T13:00:26.094Z,69.95
2018-07-10T13:01:25.967Z,69.95
2018-07-10T13:02:26.000Z,69.85
2018-07-10T13:03:25.983Z,69.46
2018-07-10T13:04:26.075Z,69.66
2018-07-10T13:05:26.328Z,70.14
2018-07-10T13:06:25.980Z,69.75
2018-07-10T13:07:25.965Z,70.24
2018-07-10T13:08:25.995Z,69.66
2018-07-10T13:09:26.428Z,69.46
2018-07-10T13:10:26.006Z,70.04
2018-07-10T13:11:26.123Z,70.14
2018-07-10T13:12:25.995Z,70.14
2018-07-10T13:13:26.027Z,69.66
2018-07-10T13:14:26.004Z,69.95
2018-07-10T13:15:25.999Z,69.95
2018-07-10T13:16:26.026Z,69.46
2018-07-10T13:17:26.024Z,70.14
2018-07-10T13:18:26.108Z,70.04
2018-07-10T13:19:26.010Z,70.04
2018-07-10T13:20:26.024Z,69.95
2018-07-10T13:21:25.973Z,70.14
2018-07-10T13:22:26.027Z,69.85
2018-07-10T13:23:25.993Z,70.14
2018-07-10T13:24:26.070Z,70.14
2018-07-10T13:25:25.976Z,70.04
2018-07-10T13:26:26.006Z,69.56
2018-07-10T13:27:26.011Z,69.75
2018-07-10T13:28:26.091Z,69.85
2018-07-10T13:29:26.063Z,69.95
2018-07-10T13:30:26.035Z,69.85
2018-07-10T13:31:26.062Z,69.85
2018-07-10T13:32:26.047Z,69.75
2018-07-10T13:33:26.029Z,69.95
2018-07-10T13:34:26.027Z,70.14
2018-07-10T13:35:42.131Z,69.46
2018-07-10T13:36:42.156Z,69.56
2018-07-10T13:41:10.587Z,69.66